sensor_id;sensor_type;location;lat;lon;timestamp;P1;durP1;ratioP1;P2;durP2;ratioP2
48613;SDS011;34408;51.426;5.444;2022-12-18T00:01:15;32.80;;;18.45;;
48613;SDS011;34408;51.426;5.444;2022-12-18T00:03:43;31.70;;;17.77;;
48613;SDS011;34408;51.426;5.444;2022-12-18T00:06:12;31.83;;;18.50;;
48613;SDS011;34408;51.426;5.444;2022-12-18T00:08:40;33.22;;;18.38;;
48613;SDS011;34408;51.426;5.444;2022-12-18T00:11:10;33.50;;;16.73;;
48613;SDS011;34408;51.426;5.444;2022-12-18T00:13:39;27.80;;;16.70;;
48613;SDS011;34408;51.426;5.444;2022-12-18T00:16:10;36.47;;;18.55;;
48613;SDS011;34408;51.426;5.444;2022-12-18T00:18:40;33.53;;;18.55;;
48613;SDS011;34408;51.426;5.444;2022-12-18T00:21:09;34.28;;;18.02;;
48613;SDS011;34408;51.426;5.444;2022-12-18T00:23:39;33.42;;;17.58;;
48613;SDS011;34408;51.426;5.444;2022-12-18T00:26:09;34.83;;;17.88;;
48613;SDS011;34408;51.426;5.444;2022-12-18T00:28:39;32.95;;;17.63;;
48613;SDS011;34408;51.426;5.444;2022-12-18T00:31:07;35.03;;;18.77;;
48613;SDS011;34408;51.426;5.444;2022-12-18T00:33:38;33.17;;;16.50;;
48613;SDS011;34408;51.426;5.444;2022-12-18T00:36:07;32.42;;;18.25;;
48613;SDS011;34408;51.426;5.444;2022-12-18T00:38:38;31.55;;;16.58;;
48613;SDS011;34408;51.426;5.444;2022-12-18T00:41:07;34.25;;;17.67;;
48613;SDS011;34408;51.426;5.444;2022-12-18T00:43:36;48.60;;;17.55;;
48613;SDS011;34408;51.426;5.444;2022-12-18T00:46:04;30.15;;;17.67;;
48613;SDS011;34408;51.426;5.444;2022-12-18T00:48:32;30.88;;;17.00;;
48613;SDS011;34408;51.426;5.444;2022-12-18T00:51:01;30.90;;;17.65;;
48613;SDS011;34408;51.426;5.444;2022-12-18T00:53:29;32.20;;;17.85;;
48613;SDS011;34408;51.426;5.444;2022-12-18T00:55:57;32.95;;;16.85;;
48613;SDS011;34408;51.426;5.444;2022-12-18T00:58:24;32.30;;;16.42;;
48613;SDS011;34408;51.426;5.444;2022-12-18T01:00:52;30.17;;;16.73;;
48613;SDS011;34408;51.426;5.444;2022-12-18T01:03:20;28.77;;;16.63;;
48613;SDS011;34408;51.426;5.444;2022-12-18T01:05:47;30.70;;;16.73;;
48613;SDS011;34408;51.426;5.444;2022-12-18T01:08:17;30.73;;;16.65;;
48613;SDS011;34408;51.426;5.444;2022-12-18T01:10:44;30.20;;;16.40;;
48613;SDS011;34408;51.426;5.444;2022-12-18T01:13:12;33.72;;;17.15;;
48613;SDS011;34408;51.426;5.444;2022-12-18T01:15:40;27.38;;;16.35;;
48613;SDS011;34408;51.426;5.444;2022-12-18T01:18:08;30.23;;;16.52;;
48613;SDS011;34408;51.426;5.444;2022-12-18T01:20:35;33.00;;;17.02;;
48613;SDS011;34408;51.426;5.444;2022-12-18T01:23:05;32.28;;;17.20;;
48613;SDS011;34408;51.426;5.444;2022-12-18T01:25:34;33.13;;;16.17;;
48613;SDS011;34408;51.426;5.444;2022-12-18T01:28:02;33.20;;;16.73;;
48613;SDS011;34408;51.426;5.444;2022-12-18T01:30:30;29.70;;;17.27;;
48613;SDS011;34408;51.426;5.444;2022-12-18T01:32:58;32.58;;;17.23;;
48613;SDS011;34408;51.426;5.444;2022-12-18T01:35:26;28.63;;;15.15;;
48613;SDS011;34408;51.426;5.444;2022-12-18T01:37:53;30.58;;;15.93;;
48613;SDS011;34408;51.426;5.444;2022-12-18T01:40:21;29.35;;;17.15;;
48613;SDS011;34408;51.426;5.444;2022-12-18T01:42:52;32.03;;;16.88;;
48613;SDS011;34408;51.426;5.444;2022-12-18T01:45:24;27.42;;;15.43;;
48613;SDS011;34408;51.426;5.444;2022-12-18T01:47:55;29.60;;;16.17;;
48613;SDS011;34408;51.426;5.444;2022-12-18T01:50:25;27.55;;;15.35;;
48613;SDS011;34408;51.426;5.444;2022-12-18T01:52:59;28.27;;;15.52;;
48613;SDS011;34408;51.426;5.444;2022-12-18T01:55:31;29.00;;;15.82;;
48613;SDS011;34408;51.426;5.444;2022-12-18T01:58:05;28.20;;;15.98;;
48613;SDS011;34408;51.426;5.444;2022-12-18T02:00:33;29.77;;;16.05;;
48613;SDS011;34408;51.426;5.444;2022-12-18T02:03:01;28.73;;;16.27;;
48613;SDS011;34408;51.426;5.444;2022-12-18T02:05:33;26.70;;;15.68;;
48613;SDS011;34408;51.426;5.444;2022-12-18T02:08:08;33.75;;;15.73;;
48613;SDS011;34408;51.426;5.444;2022-12-18T02:10:40;29.42;;;16.60;;
48613;SDS011;34408;51.426;5.444;2022-12-18T02:13:15;31.15;;;15.68;;
48613;SDS011;34408;51.426;5.444;2022-12-18T02:15:50;26.48;;;15.05;;
48613;SDS011;34408;51.426;5.444;2022-12-18T02:18:26;30.45;;;14.38;;
48613;SDS011;34408;51.426;5.444;2022-12-18T02:21:00;26.20;;;15.00;;
48613;SDS011;34408;51.426;5.444;2022-12-18T02:23:40;28.02;;;14.70;;
48613;SDS011;34408;51.426;5.444;2022-12-18T02:26:19;35.35;;;15.45;;
48613;SDS011;34408;51.426;5.444;2022-12-18T02:28:53;31.17;;;15.63;;
48613;SDS011;34408;51.426;5.444;2022-12-18T02:31:25;27.95;;;14.57;;
48613;SDS011;34408;51.426;5.444;2022-12-18T02:33:56;26.42;;;14.93;;
48613;SDS011;34408;51.426;5.444;2022-12-18T02:36:27;25.95;;;14.95;;
48613;SDS011;34408;51.426;5.444;2022-12-18T02:38:56;29.63;;;15.48;;
48613;SDS011;34408;51.426;5.444;2022-12-18T02:41:28;27.48;;;14.25;;
48613;SDS011;34408;51.426;5.444;2022-12-18T02:43:58;26.15;;;14.80;;
48613;SDS011;34408;51.426;5.444;2022-12-18T02:46:30;27.33;;;14.63;;
48613;SDS011;34408;51.426;5.444;2022-12-18T02:49:06;27.55;;;15.00;;
48613;SDS011;34408;51.426;5.444;2022-12-18T02:51:46;28.45;;;14.45;;
48613;SDS011;34408;51.426;5.444;2022-12-18T02:54:20;28.83;;;15.50;;
48613;SDS011;34408;51.426;5.444;2022-12-18T02:57:01;26.98;;;14.13;;
48613;SDS011;34408;51.426;5.444;2022-12-18T02:59:39;26.30;;;15.05;;
48613;SDS011;34408;51.426;5.444;2022-12-18T03:02:15;24.50;;;13.27;;
48613;SDS011;34408;51.426;5.444;2022-12-18T03:04:49;24.45;;;14.25;;
48613;SDS011;34408;51.426;5.444;2022-12-18T03:07:25;27.98;;;14.55;;
48613;SDS011;34408;51.426;5.444;2022-12-18T03:10:00;24.70;;;14.98;;
48613;SDS011;34408;51.426;5.444;2022-12-18T03:12:30;25.70;;;13.27;;
48613;SDS011;34408;51.426;5.444;2022-12-18T03:15:04;24.02;;;13.10;;
48613;SDS011;34408;51.426;5.444;2022-12-18T03:17:44;27.25;;;14.38;;
48613;SDS011;34408;51.426;5.444;2022-12-18T03:20:17;22.35;;;12.60;;
48613;SDS011;34408;51.426;5.444;2022-12-18T03:22:48;25.08;;;13.57;;
48613;SDS011;34408;51.426;5.444;2022-12-18T03:25:21;25.30;;;14.15;;
48613;SDS011;34408;51.426;5.444;2022-12-18T03:27:51;22.05;;;12.02;;
48613;SDS011;34408;51.426;5.444;2022-12-18T03:30:23;21.30;;;12.18;;
48613;SDS011;34408;51.426;5.444;2022-12-18T03:32:53;26.02;;;11.55;;
48613;SDS011;34408;51.426;5.444;2022-12-18T03:35:29;23.00;;;13.15;;
48613;SDS011;34408;51.426;5.444;2022-12-18T03:38:02;23.40;;;12.00;;
48613;SDS011;34408;51.426;5.444;2022-12-18T03:40:31;25.95;;;14.63;;
48613;SDS011;34408;51.426;5.444;2022-12-18T03:43:10;20.60;;;12.43;;
48613;SDS011;34408;51.426;5.444;2022-12-18T03:45:46;22.85;;;12.20;;
48613;SDS011;34408;51.426;5.444;2022-12-18T03:48:21;23.63;;;12.95;;
48613;SDS011;34408;51.426;5.444;2022-12-18T03:50:57;23.42;;;11.48;;
48613;SDS011;34408;51.426;5.444;2022-12-18T03:53:29;21.25;;;10.63;;
48613;SDS011;34408;51.426;5.444;2022-12-18T03:56:04;22.02;;;13.02;;
48613;SDS011;34408;51.426;5.444;2022-12-18T03:58:35;23.83;;;12.68;;
48613;SDS011;34408;51.426;5.444;2022-12-18T04:01:07;22.40;;;11.77;;
48613;SDS011;34408;51.426;5.444;2022-12-18T04:03:38;20.08;;;11.70;;
48613;SDS011;34408;51.426;5.444;2022-12-18T04:06:08;22.55;;;12.18;;
48613;SDS011;34408;51.426;5.444;2022-12-18T04:08:37;22.33;;;12.23;;
48613;SDS011;34408;51.426;5.444;2022-12-18T04:11:06;22.05;;;11.98;;
48613;SDS011;34408;51.426;5.444;2022-12-18T04:13:35;24.63;;;12.60;;
48613;SDS011;34408;51.426;5.444;2022-12-18T04:16:05;19.45;;;11.85;;
48613;SDS011;34408;51.426;5.444;2022-12-18T04:18:33;20.38;;;11.52;;
48613;SDS011;34408;51.426;5.444;2022-12-18T04:21:01;19.98;;;11.13;;
48613;SDS011;34408;51.426;5.444;2022-12-18T04:23:29;20.73;;;11.52;;
48613;SDS011;34408;51.426;5.444;2022-12-18T04:25:57;20.92;;;11.00;;
48613;SDS011;34408;51.426;5.444;2022-12-18T04:28:24;20.30;;;10.93;;
48613;SDS011;34408;51.426;5.444;2022-12-18T04:30:53;23.02;;;12.57;;
48613;SDS011;34408;51.426;5.444;2022-12-18T04:33:21;20.27;;;10.60;;
48613;SDS011;34408;51.426;5.444;2022-12-18T04:35:49;22.00;;;11.63;;
48613;SDS011;34408;51.426;5.444;2022-12-18T04:38:16;21.85;;;11.88;;
48613;SDS011;34408;51.426;5.444;2022-12-18T04:40:44;20.05;;;11.48;;
48613;SDS011;34408;51.426;5.444;2022-12-18T04:43:12;21.92;;;11.23;;
48613;SDS011;34408;51.426;5.444;2022-12-18T04:45:40;19.33;;;10.38;;
48613;SDS011;34408;51.426;5.444;2022-12-18T04:48:09;20.23;;;11.13;;
48613;SDS011;34408;51.426;5.444;2022-12-18T04:50:37;20.98;;;10.85;;
48613;SDS011;34408;51.426;5.444;2022-12-18T04:53:06;23.00;;;12.57;;
48613;SDS011;34408;51.426;5.444;2022-12-18T04:55:35;19.83;;;10.60;;
48613;SDS011;34408;51.426;5.444;2022-12-18T04:58:03;21.35;;;11.70;;
48613;SDS011;34408;51.426;5.444;2022-12-18T05:00:31;20.65;;;10.38;;
48613;SDS011;34408;51.426;5.444;2022-12-18T05:03:00;20.00;;;10.20;;
48613;SDS011;34408;51.426;5.444;2022-12-18T05:05:30;20.90;;;10.15;;
48613;SDS011;34408;51.426;5.444;2022-12-18T05:07:59;17.42;;;10.30;;
48613;SDS011;34408;51.426;5.444;2022-12-18T05:10:27;17.63;;;10.48;;
48613;SDS011;34408;51.426;5.444;2022-12-18T05:13:02;18.08;;;10.68;;
48613;SDS011;34408;51.426;5.444;2022-12-18T05:15:30;20.10;;;12.05;;
48613;SDS011;34408;51.426;5.444;2022-12-18T05:17:59;19.35;;;10.18;;
48613;SDS011;34408;51.426;5.444;2022-12-18T05:20:27;19.33;;;10.23;;
48613;SDS011;34408;51.426;5.444;2022-12-18T05:22:57;21.55;;;10.48;;
48613;SDS011;34408;51.426;5.444;2022-12-18T05:25:24;20.05;;;11.02;;
48613;SDS011;34408;51.426;5.444;2022-12-18T05:27:52;19.38;;;10.50;;
48613;SDS011;34408;51.426;5.444;2022-12-18T05:30:20;19.83;;;9.93;;
48613;SDS011;34408;51.426;5.444;2022-12-18T05:32:48;21.00;;;10.45;;
48613;SDS011;34408;51.426;5.444;2022-12-18T05:35:16;21.98;;;10.82;;
48613;SDS011;34408;51.426;5.444;2022-12-18T05:37:45;20.55;;;9.85;;
48613;SDS011;34408;51.426;5.444;2022-12-18T05:40:13;21.17;;;10.35;;
48613;SDS011;34408;51.426;5.444;2022-12-18T05:42:45;18.90;;;10.07;;
48613;SDS011;34408;51.426;5.444;2022-12-18T05:45:13;18.15;;;10.35;;
48613;SDS011;34408;51.426;5.444;2022-12-18T05:47:40;23.23;;;10.05;;
48613;SDS011;34408;51.426;5.444;2022-12-18T05:50:08;19.60;;;10.20;;
48613;SDS011;34408;51.426;5.444;2022-12-18T05:52:36;18.27;;;10.02;;
48613;SDS011;34408;51.426;5.444;2022-12-18T05:55:05;19.27;;;9.88;;
48613;SDS011;34408;51.426;5.444;2022-12-18T05:57:33;20.75;;;10.75;;
48613;SDS011;34408;51.426;5.444;2022-12-18T06:00:01;14.98;;;8.80;;
48613;SDS011;34408;51.426;5.444;2022-12-18T06:02:29;18.77;;;9.23;;
48613;SDS011;34408;51.426;5.444;2022-12-18T06:04:57;17.70;;;9.85;;
48613;SDS011;34408;51.426;5.444;2022-12-18T06:07:25;18.17;;;10.05;;
48613;SDS011;34408;51.426;5.444;2022-12-18T06:09:52;17.10;;;9.82;;
48613;SDS011;34408;51.426;5.444;2022-12-18T06:12:22;20.38;;;9.77;;
48613;SDS011;34408;51.426;5.444;2022-12-18T06:14:49;19.88;;;10.10;;
48613;SDS011;34408;51.426;5.444;2022-12-18T06:17:17;15.32;;;9.38;;
48613;SDS011;34408;51.426;5.444;2022-12-18T06:19:45;17.42;;;9.55;;
48613;SDS011;34408;51.426;5.444;2022-12-18T06:22:12;18.10;;;9.45;;
48613;SDS011;34408;51.426;5.444;2022-12-18T06:24:40;19.27;;;10.20;;
48613;SDS011;34408;51.426;5.444;2022-12-18T06:27:08;17.88;;;9.70;;
48613;SDS011;34408;51.426;5.444;2022-12-18T06:29:37;15.30;;;8.40;;
48613;SDS011;34408;51.426;5.444;2022-12-18T06:32:04;16.58;;;8.85;;
48613;SDS011;34408;51.426;5.444;2022-12-18T06:34:32;16.45;;;10.30;;
48613;SDS011;34408;51.426;5.444;2022-12-18T06:37:00;18.63;;;9.80;;
48613;SDS011;34408;51.426;5.444;2022-12-18T06:39:28;16.98;;;9.77;;
48613;SDS011;34408;51.426;5.444;2022-12-18T06:41:56;20.40;;;9.75;;
48613;SDS011;34408;51.426;5.444;2022-12-18T06:44:24;16.35;;;9.25;;
48613;SDS011;34408;51.426;5.444;2022-12-18T06:46:53;20.30;;;9.25;;
48613;SDS011;34408;51.426;5.444;2022-12-18T06:49:20;16.98;;;9.50;;
48613;SDS011;34408;51.426;5.444;2022-12-18T06:51:55;16.98;;;9.57;;
48613;SDS011;34408;51.426;5.444;2022-12-18T06:54:23;18.25;;;10.32;;
48613;SDS011;34408;51.426;5.444;2022-12-18T06:56:50;17.20;;;9.85;;
48613;SDS011;34408;51.426;5.444;2022-12-18T06:59:18;16.35;;;9.13;;
48613;SDS011;34408;51.426;5.444;2022-12-18T07:01:46;14.77;;;8.45;;
48613;SDS011;34408;51.426;5.444;2022-12-18T07:04:15;24.10;;;10.02;;
48613;SDS011;34408;51.426;5.444;2022-12-18T07:06:43;17.05;;;9.65;;
48613;SDS011;34408;51.426;5.444;2022-12-18T07:09:10;17.50;;;10.10;;
48613;SDS011;34408;51.426;5.444;2022-12-18T07:11:38;24.83;;;10.10;;
48613;SDS011;34408;51.426;5.444;2022-12-18T07:14:06;17.63;;;10.05;;
48613;SDS011;34408;51.426;5.444;2022-12-18T07:16:34;17.00;;;9.45;;
48613;SDS011;34408;51.426;5.444;2022-12-18T07:19:01;17.35;;;9.43;;
48613;SDS011;34408;51.426;5.444;2022-12-18T07:21:31;21.92;;;9.98;;
48613;SDS011;34408;51.426;5.444;2022-12-18T07:23:58;17.55;;;9.25;;
48613;SDS011;34408;51.426;5.444;2022-12-18T07:26:26;17.27;;;9.35;;
48613;SDS011;34408;51.426;5.444;2022-12-18T07:28:54;17.73;;;10.13;;
48613;SDS011;34408;51.426;5.444;2022-12-18T07:31:23;17.00;;;9.05;;
48613;SDS011;34408;51.426;5.444;2022-12-18T07:33:52;18.02;;;9.98;;
48613;SDS011;34408;51.426;5.444;2022-12-18T07:36:19;17.70;;;10.18;;
48613;SDS011;34408;51.426;5.444;2022-12-18T07:38:49;18.95;;;10.27;;
48613;SDS011;34408;51.426;5.444;2022-12-18T07:41:18;17.77;;;9.75;;
48613;SDS011;34408;51.426;5.444;2022-12-18T07:43:46;16.48;;;9.20;;
48613;SDS011;34408;51.426;5.444;2022-12-18T07:46:15;19.00;;;10.00;;
48613;SDS011;34408;51.426;5.444;2022-12-18T07:48:43;17.92;;;9.02;;
48613;SDS011;34408;51.426;5.444;2022-12-18T07:51:15;18.80;;;9.07;;
48613;SDS011;34408;51.426;5.444;2022-12-18T07:53:44;17.33;;;9.52;;
48613;SDS011;34408;51.426;5.444;2022-12-18T07:56:16;16.95;;;9.82;;
48613;SDS011;34408;51.426;5.444;2022-12-18T07:58:53;18.63;;;9.82;;
48613;SDS011;34408;51.426;5.444;2022-12-18T08:01:21;21.15;;;9.57;;
48613;SDS011;34408;51.426;5.444;2022-12-18T08:03:49;20.02;;;9.68;;
48613;SDS011;34408;51.426;5.444;2022-12-18T08:06:17;17.63;;;10.30;;
48613;SDS011;34408;51.426;5.444;2022-12-18T08:08:50;17.30;;;9.85;;
48613;SDS011;34408;51.426;5.444;2022-12-18T08:11:20;15.73;;;9.48;;
48613;SDS011;34408;51.426;5.444;2022-12-18T08:13:48;18.88;;;9.90;;
48613;SDS011;34408;51.426;5.444;2022-12-18T08:16:16;18.63;;;10.68;;
48613;SDS011;34408;51.426;5.444;2022-12-18T08:18:46;17.60;;;8.88;;
48613;SDS011;34408;51.426;5.444;2022-12-18T08:21:15;20.52;;;9.57;;
48613;SDS011;34408;51.426;5.444;2022-12-18T08:23:46;17.50;;;9.43;;
48613;SDS011;34408;51.426;5.444;2022-12-18T08:26:16;16.65;;;9.73;;
48613;SDS011;34408;51.426;5.444;2022-12-18T08:28:45;17.60;;;10.00;;
48613;SDS011;34408;51.426;5.444;2022-12-18T08:31:14;17.23;;;10.32;;
48613;SDS011;34408;51.426;5.444;2022-12-18T08:33:42;17.58;;;9.90;;
48613;SDS011;34408;51.426;5.444;2022-12-18T08:36:10;24.13;;;10.70;;
48613;SDS011;34408;51.426;5.444;2022-12-18T08:38:37;18.17;;;9.32;;
48613;SDS011;34408;51.426;5.444;2022-12-18T08:41:07;20.45;;;10.63;;
48613;SDS011;34408;51.426;5.444;2022-12-18T08:43:36;17.63;;;10.10;;
48613;SDS011;34408;51.426;5.444;2022-12-18T08:46:23;18.35;;;10.65;;
48613;SDS011;34408;51.426;5.444;2022-12-18T08:48:54;17.70;;;9.70;;
48613;SDS011;34408;51.426;5.444;2022-12-18T08:51:22;16.90;;;9.65;;
48613;SDS011;34408;51.426;5.444;2022-12-18T08:53:49;19.05;;;9.93;;
48613;SDS011;34408;51.426;5.444;2022-12-18T08:56:17;21.85;;;10.52;;
48613;SDS011;34408;51.426;5.444;2022-12-18T08:58:45;22.15;;;10.85;;
48613;SDS011;34408;51.426;5.444;2022-12-18T09:01:13;20.88;;;11.13;;
48613;SDS011;34408;51.426;5.444;2022-12-18T09:03:42;19.05;;;9.60;;
48613;SDS011;34408;51.426;5.444;2022-12-18T09:06:12;19.33;;;10.48;;
48613;SDS011;34408;51.426;5.444;2022-12-18T09:08:41;20.70;;;10.50;;
48613;SDS011;34408;51.426;5.444;2022-12-18T09:11:11;15.57;;;9.05;;
48613;SDS011;34408;51.426;5.444;2022-12-18T09:13:42;17.08;;;9.60;;
48613;SDS011;34408;51.426;5.444;2022-12-18T09:16:09;19.60;;;10.07;;
48613;SDS011;34408;51.426;5.444;2022-12-18T09:18:37;18.13;;;9.95;;
48613;SDS011;34408;51.426;5.444;2022-12-18T09:21:10;17.23;;;9.48;;
48613;SDS011;34408;51.426;5.444;2022-12-18T09:23:40;18.65;;;10.02;;
48613;SDS011;34408;51.426;5.444;2022-12-18T09:26:08;17.83;;;9.90;;
48613;SDS011;34408;51.426;5.444;2022-12-18T09:28:36;17.13;;;9.82;;
48613;SDS011;34408;51.426;5.444;2022-12-18T09:31:05;19.60;;;10.73;;
48613;SDS011;34408;51.426;5.444;2022-12-18T09:33:34;17.02;;;9.90;;
48613;SDS011;34408;51.426;5.444;2022-12-18T09:36:03;18.88;;;10.07;;
48613;SDS011;34408;51.426;5.444;2022-12-18T09:38:34;18.05;;;9.63;;
48613;SDS011;34408;51.426;5.444;2022-12-18T09:41:05;18.23;;;9.80;;
48613;SDS011;34408;51.426;5.444;2022-12-18T09:43:43;20.98;;;10.52;;
48613;SDS011;34408;51.426;5.444;2022-12-18T09:46:16;17.60;;;10.32;;
48613;SDS011;34408;51.426;5.444;2022-12-18T09:51:22;15.93;;;10.18;;
48613;SDS011;34408;51.426;5.444;2022-12-18T09:53:56;21.08;;;10.40;;
48613;SDS011;34408;51.426;5.444;2022-12-18T09:56:28;21.38;;;10.52;;
48613;SDS011;34408;51.426;5.444;2022-12-18T09:58:59;20.42;;;11.00;;
48613;SDS011;34408;51.426;5.444;2022-12-18T10:01:28;20.50;;;9.95;;
48613;SDS011;34408;51.426;5.444;2022-12-18T10:04:08;21.15;;;10.80;;
48613;SDS011;34408;51.426;5.444;2022-12-18T10:06:38;19.30;;;10.15;;
48613;SDS011;34408;51.426;5.444;2022-12-18T10:09:13;17.85;;;10.48;;
48613;SDS011;34408;51.426;5.444;2022-12-18T10:11:48;18.40;;;9.98;;
48613;SDS011;34408;51.426;5.444;2022-12-18T10:14:23;19.67;;;10.18;;
48613;SDS011;34408;51.426;5.444;2022-12-18T10:16:58;17.25;;;9.73;;
48613;SDS011;34408;51.426;5.444;2022-12-18T10:19:34;18.00;;;10.10;;
48613;SDS011;34408;51.426;5.444;2022-12-18T10:24:43;17.00;;;9.65;;
48613;SDS011;34408;51.426;5.444;2022-12-18T10:27:21;21.65;;;11.07;;
48613;SDS011;34408;51.426;5.444;2022-12-18T10:29:50;18.63;;;10.30;;
48613;SDS011;34408;51.426;5.444;2022-12-18T10:32:19;19.02;;;10.18;;
48613;SDS011;34408;51.426;5.444;2022-12-18T10:34:49;20.25;;;10.43;;
48613;SDS011;34408;51.426;5.444;2022-12-18T10:37:26;18.95;;;10.25;;
48613;SDS011;34408;51.426;5.444;2022-12-18T10:40:07;18.80;;;10.93;;
48613;SDS011;34408;51.426;5.444;2022-12-18T10:42:47;19.33;;;10.95;;
48613;SDS011;34408;51.426;5.444;2022-12-18T10:45:30;20.00;;;10.73;;
48613;SDS011;34408;51.426;5.444;2022-12-18T10:47:57;19.55;;;11.02;;
48613;SDS011;34408;51.426;5.444;2022-12-18T10:50:26;22.83;;;10.70;;
48613;SDS011;34408;51.426;5.444;2022-12-18T10:53:18;18.92;;;10.60;;
48613;SDS011;34408;51.426;5.444;2022-12-18T10:55:50;21.98;;;11.88;;
48613;SDS011;34408;51.426;5.444;2022-12-18T10:58:21;28.45;;;13.55;;
48613;SDS011;34408;51.426;5.444;2022-12-18T11:01:02;19.40;;;10.77;;
48613;SDS011;34408;51.426;5.444;2022-12-18T11:03:33;24.35;;;10.98;;
48613;SDS011;34408;51.426;5.444;2022-12-18T11:06:04;19.35;;;11.30;;
48613;SDS011;34408;51.426;5.444;2022-12-18T11:08:33;18.92;;;10.77;;
48613;SDS011;34408;51.426;5.444;2022-12-18T11:11:02;19.20;;;10.73;;
48613;SDS011;34408;51.426;5.444;2022-12-18T11:13:34;21.33;;;11.13;;
48613;SDS011;34408;51.426;5.444;2022-12-18T11:16:02;20.92;;;10.68;;
48613;SDS011;34408;51.426;5.444;2022-12-18T11:18:30;18.38;;;10.65;;
48613;SDS011;34408;51.426;5.444;2022-12-18T11:21:04;22.48;;;11.95;;
48613;SDS011;34408;51.426;5.444;2022-12-18T11:23:35;17.02;;;10.38;;
48613;SDS011;34408;51.426;5.444;2022-12-18T11:26:05;20.67;;;10.52;;
48613;SDS011;34408;51.426;5.444;2022-12-18T11:28:36;19.02;;;10.30;;
48613;SDS011;34408;51.426;5.444;2022-12-18T11:36:46;18.08;;;10.68;;
48613;SDS011;34408;51.426;5.444;2022-12-18T11:39:16;19.63;;;11.15;;
48613;SDS011;34408;51.426;5.444;2022-12-18T11:41:50;21.52;;;10.98;;
48613;SDS011;34408;51.426;5.444;2022-12-18T11:44:41;20.30;;;11.52;;
48613;SDS011;34408;51.426;5.444;2022-12-18T11:47:15;19.42;;;10.75;;
48613;SDS011;34408;51.426;5.444;2022-12-18T11:49:52;20.17;;;11.52;;
48613;SDS011;34408;51.426;5.444;2022-12-18T11:52:23;19.45;;;11.73;;
48613;SDS011;34408;51.426;5.444;2022-12-18T11:54:55;18.65;;;10.73;;
48613;SDS011;34408;51.426;5.444;2022-12-18T11:57:30;19.50;;;10.30;;
48613;SDS011;34408;51.426;5.444;2022-12-18T12:00:10;19.90;;;11.07;;
48613;SDS011;34408;51.426;5.444;2022-12-18T12:02:44;19.30;;;10.85;;
48613;SDS011;34408;51.426;5.444;2022-12-18T12:05:38;21.00;;;10.90;;
48613;SDS011;34408;51.426;5.444;2022-12-18T12:08:18;18.23;;;10.55;;
48613;SDS011;34408;51.426;5.444;2022-12-18T12:10:57;18.27;;;10.63;;
48613;SDS011;34408;51.426;5.444;2022-12-18T12:13:37;16.50;;;10.40;;
48613;SDS011;34408;51.426;5.444;2022-12-18T12:16:17;19.60;;;10.82;;
48613;SDS011;34408;51.426;5.444;2022-12-18T12:19:00;18.42;;;10.38;;
48613;SDS011;34408;51.426;5.444;2022-12-18T12:21:43;19.63;;;11.13;;
48613;SDS011;34408;51.426;5.444;2022-12-18T12:24:23;16.52;;;10.38;;
48613;SDS011;34408;51.426;5.444;2022-12-18T12:26:59;19.48;;;10.85;;
48613;SDS011;34408;51.426;5.444;2022-12-18T12:29:38;19.02;;;10.57;;
48613;SDS011;34408;51.426;5.444;2022-12-18T12:32:19;18.05;;;9.85;;
48613;SDS011;34408;51.426;5.444;2022-12-18T12:34:57;18.88;;;11.77;;
48613;SDS011;34408;51.426;5.444;2022-12-18T12:37:38;17.70;;;10.30;;
48613;SDS011;34408;51.426;5.444;2022-12-18T12:40:16;17.75;;;10.88;;
48613;SDS011;34408;51.426;5.444;2022-12-18T12:43:10;16.08;;;9.90;;
48613;SDS011;34408;51.426;5.444;2022-12-18T12:45:49;18.00;;;10.80;;
48613;SDS011;34408;51.426;5.444;2022-12-18T12:48:23;18.73;;;10.48;;
48613;SDS011;34408;51.426;5.444;2022-12-18T12:51:00;19.77;;;11.57;;
48613;SDS011;34408;51.426;5.444;2022-12-18T12:53:35;18.15;;;10.15;;
48613;SDS011;34408;51.426;5.444;2022-12-18T12:56:06;19.73;;;10.55;;
48613;SDS011;34408;51.426;5.444;2022-12-18T12:58:39;17.10;;;9.82;;
48613;SDS011;34408;51.426;5.444;2022-12-18T13:01:18;16.63;;;9.43;;
48613;SDS011;34408;51.426;5.444;2022-12-18T13:03:58;18.83;;;10.73;;
48613;SDS011;34408;51.426;5.444;2022-12-18T13:06:37;21.40;;;10.82;;
48613;SDS011;34408;51.426;5.444;2022-12-18T13:09:11;17.67;;;10.50;;
48613;SDS011;34408;51.426;5.444;2022-12-18T13:11:40;17.75;;;10.25;;
48613;SDS011;34408;51.426;5.444;2022-12-18T13:14:27;19.27;;;11.37;;
48613;SDS011;34408;51.426;5.444;2022-12-18T13:17:15;20.92;;;10.63;;
48613;SDS011;34408;51.426;5.444;2022-12-18T13:22:20;17.20;;;9.70;;
48613;SDS011;34408;51.426;5.444;2022-12-18T13:24:50;19.67;;;10.00;;
48613;SDS011;34408;51.426;5.444;2022-12-18T13:30:46;19.40;;;10.27;;
48613;SDS011;34408;51.426;5.444;2022-12-18T13:36:38;22.83;;;10.60;;
48613;SDS011;34408;51.426;5.444;2022-12-18T13:39:10;16.05;;;9.40;;
48613;SDS011;34408;51.426;5.444;2022-12-18T13:45:35;17.45;;;10.48;;
48613;SDS011;34408;51.426;5.444;2022-12-18T13:48:17;19.40;;;10.80;;
48613;SDS011;34408;51.426;5.444;2022-12-18T13:50:50;20.50;;;11.35;;
48613;SDS011;34408;51.426;5.444;2022-12-18T13:53:21;23.17;;;10.27;;
48613;SDS011;34408;51.426;5.444;2022-12-18T13:55:53;19.52;;;10.90;;
48613;SDS011;34408;51.426;5.444;2022-12-18T13:58:22;19.83;;;10.75;;
48613;SDS011;34408;51.426;5.444;2022-12-18T14:00:49;24.88;;;11.80;;
48613;SDS011;34408;51.426;5.444;2022-12-18T14:03:19;19.80;;;11.45;;
48613;SDS011;34408;51.426;5.444;2022-12-18T14:05:54;22.33;;;11.27;;
48613;SDS011;34408;51.426;5.444;2022-12-18T14:08:27;26.35;;;10.73;;
48613;SDS011;34408;51.426;5.444;2022-12-18T14:10:59;23.52;;;11.57;;
48613;SDS011;34408;51.426;5.444;2022-12-18T14:13:31;18.80;;;11.57;;
48613;SDS011;34408;51.426;5.444;2022-12-18T14:16:01;17.95;;;11.40;;
48613;SDS011;34408;51.426;5.444;2022-12-18T14:18:35;19.52;;;10.93;;
48613;SDS011;34408;51.426;5.444;2022-12-18T14:21:16;20.98;;;12.07;;
48613;SDS011;34408;51.426;5.444;2022-12-18T14:23:47;20.80;;;11.10;;
48613;SDS011;34408;51.426;5.444;2022-12-18T14:26:19;18.05;;;10.38;;
48613;SDS011;34408;51.426;5.444;2022-12-18T14:28:50;20.65;;;11.90;;
48613;SDS011;34408;51.426;5.444;2022-12-18T14:31:20;18.95;;;12.18;;
48613;SDS011;34408;51.426;5.444;2022-12-18T14:33:50;23.02;;;11.50;;
48613;SDS011;34408;51.426;5.444;2022-12-18T14:36:20;20.20;;;10.60;;
48613;SDS011;34408;51.426;5.444;2022-12-18T14:38:50;20.20;;;11.40;;
48613;SDS011;34408;51.426;5.444;2022-12-18T14:41:20;20.15;;;11.60;;
48613;SDS011;34408;51.426;5.444;2022-12-18T14:43:49;21.95;;;11.00;;
48613;SDS011;34408;51.426;5.444;2022-12-18T14:46:25;22.38;;;11.40;;
48613;SDS011;34408;51.426;5.444;2022-12-18T14:48:55;22.85;;;11.45;;
48613;SDS011;34408;51.426;5.444;2022-12-18T14:51:25;27.55;;;12.82;;
48613;SDS011;34408;51.426;5.444;2022-12-18T14:53:55;22.38;;;11.40;;
48613;SDS011;34408;51.426;5.444;2022-12-18T14:56:25;18.73;;;10.55;;
48613;SDS011;34408;51.426;5.444;2022-12-18T14:58:55;17.95;;;10.32;;
48613;SDS011;34408;51.426;5.444;2022-12-18T15:01:28;18.08;;;10.85;;
48613;SDS011;34408;51.426;5.444;2022-12-18T15:03:59;18.30;;;10.85;;
48613;SDS011;34408;51.426;5.444;2022-12-18T15:06:33;16.73;;;9.98;;
48613;SDS011;34408;51.426;5.444;2022-12-18T15:09:03;21.95;;;11.38;;
48613;SDS011;34408;51.426;5.444;2022-12-18T15:11:47;19.83;;;10.20;;